createdAt,value
2019-01-25T00:01:18.955Z,46.34
2019-01-25T00:03:48.352Z,46.57
2019-01-25T00:06:17.776Z,46.50
2019-01-25T00:08:47.125Z,46.24
2019-01-25T00:11:16.542Z,46.34
2019-01-25T00:13:45.911Z,46.10
2019-01-25T00:16:15.341Z,45.95
2019-01-25T00:18:44.938Z,46.36
2019-01-25T00:21:14.341Z,46.10
2019-01-25T00:23:43.720Z,46.23
2019-01-25T00:26:13.229Z,46.80
2019-01-25T00:28:42.670Z,46.90
2019-01-25T00:31:12.132Z,46.54
2019-01-25T00:33:41.486Z,46.85
2019-01-25T00:36:10.945Z,46.83
2019-01-25T00:38:40.303Z,47.35
2019-01-25T00:41:09.704Z,48.02
2019-01-25T00:43:39.121Z,48.24
2019-01-25T00:46:08.494Z,48.24
2019-01-25T00:48:37.903Z,48.10
2019-01-25T00:51:07.287Z,47.89
2019-01-25T00:53:36.707Z,47.75
2019-01-25T00:56:06.826Z,48.56
2019-01-25T00:58:36.266Z,48.61
2019-01-25T01:01:05.640Z,49.21
2019-01-25T01:03:35.038Z,49.61
2019-01-25T01:06:04.385Z,49.58
2019-01-25T01:08:33.843Z,49.53
2019-01-25T01:11:03.370Z,49.53
2019-01-25T01:13:32.847Z,49.93
2019-01-25T01:16:02.244Z,50.04
2019-01-25T01:18:31.651Z,49.89
2019-01-25T01:21:01.006Z,50.04
2019-01-25T01:23:30.447Z,49.90
2019-01-25T01:25:59.879Z,50.14
2019-01-25T01:28:29.384Z,50.25
2019-01-25T01:30:58.758Z,51.20
2019-01-25T01:33:28.288Z,51.58
2019-01-25T01:35:57.678Z,51.82
2019-01-25T01:38:27.093Z,52.74
2019-01-25T01:40:56.488Z,52.64
2019-01-25T01:43:25.907Z,52.05
2019-01-25T01:45:55.307Z,52.01
2019-01-25T01:48:24.727Z,51.71
2019-01-25T01:50:54.277Z,52.18
2019-01-25T01:53:23.690Z,52.68
2019-01-25T01:55:53.088Z,52.54
2019-01-25T01:58:22.487Z,52.06
2019-01-25T02:00:51.893Z,52.06
2019-01-25T02:03:21.430Z,52.16
2019-01-25T02:05:50.806Z,51.92
2019-01-25T02:08:20.213Z,52.55
2019-01-25T02:10:49.610Z,53.56
2019-01-25T02:13:19.039Z,53.32
2019-01-25T02:15:48.409Z,52.61
2019-01-25T02:18:17.836Z,53.04
2019-01-25T02:20:47.247Z,52.89
2019-01-25T02:23:16.695Z,52.48
2019-01-25T02:25:46.041Z,52.98
2019-01-25T02:28:15.408Z,54.88
2019-01-25T02:30:44.874Z,54.05
2019-01-25T02:33:14.286Z,52.99
2019-01-25T02:35:43.759Z,53.23
2019-01-25T02:38:13.139Z,55.23
2019-01-25T02:40:42.588Z,54.76
2019-01-25T02:43:11.971Z,54.45
2019-01-25T02:45:41.380Z,54.08
2019-01-25T02:48:10.756Z,53.18
2019-01-25T02:50:40.179Z,53.05
2019-01-25T02:53:09.557Z,55.28
2019-01-25T02:55:39.061Z,55.46
2019-01-25T02:58:08.430Z,55.35
2019-01-25T03:00:37.856Z,54.28
2019-01-25T03:03:07.241Z,54.16
2019-01-25T03:05:36.639Z,57.73
2019-01-25T03:08:06.017Z,57.34
2019-01-25T03:10:35.525Z,58.42
2019-01-25T03:13:04.906Z,59.31
2019-01-25T03:15:34.315Z,58.89
2019-01-25T03:18:03.678Z,56.78
2019-01-25T03:20:33.100Z,55.64
2019-01-25T03:23:02.472Z,56.69
2019-01-25T03:25:31.884Z,58.60
2019-01-25T03:28:01.284Z,59.96
2019-01-25T03:30:30.697Z,60.66
2019-01-25T03:33:00.092Z,60.38
2019-01-25T03:35:29.541Z,60.11
2019-01-25T03:37:58.915Z,61.42
2019-01-25T03:40:29.054Z,62.54
2019-01-25T03:42:58.466Z,62.38
2019-01-25T03:45:28.101Z,60.87
2019-01-25T03:47:57.474Z,58.66
2019-01-25T03:50:28.845Z,58.77
2019-01-25T03:52:58.237Z,58.34
2019-01-25T03:55:27.667Z,57.49
2019-01-25T03:57:57.043Z,59.19
2019-01-25T04:00:28.407Z,60.15
2019-01-25T04:02:57.773Z,58.48
2019-01-25T04:05:27.239Z,56.81
2019-01-25T04:07:56.647Z,55.64
2019-01-25T04:10:27.463Z,57.21
2019-01-25T04:12:56.905Z,59.08
2019-01-25T04:15:28.515Z,59.86
2019-01-25T04:17:57.896Z,60.81
2019-01-25T04:20:27.333Z,60.19
2019-01-25T04:22:56.805Z,60.12
2019-01-25T04:25:26.258Z,61.33
2019-01-25T04:27:55.649Z,61.41
2019-01-25T04:30:27.103Z,61.59
2019-01-25T04:32:56.621Z,60.51
2019-01-25T04:35:26.161Z,58.86
2019-01-25T04:37:55.578Z,59.30
2019-01-25T04:40:24.990Z,60.77
2019-01-25T04:42:54.411Z,60.51
2019-01-25T04:45:23.903Z,60.00
2019-01-25T04:47:53.291Z,59.35
2019-01-25T04:50:24.369Z,58.03
2019-01-25T04:52:54.178Z,57.09
2019-01-25T04:55:30.895Z,56.19
2019-01-25T04:58:17.211Z,55.93
2019-01-25T05:00:46.671Z,55.75
2019-01-25T05:03:16.225Z,55.44
2019-01-25T05:05:45.720Z,55.43
2019-01-25T05:08:19.734Z,55.09
2019-01-25T05:10:49.534Z,54.79
2019-01-25T05:13:18.952Z,54.37
2019-01-25T05:15:48.345Z,54.40
2019-01-25T05:18:17.777Z,54.74
2019-01-25T05:20:47.210Z,54.73
2019-01-25T05:23:16.649Z,54.41
2019-01-25T05:25:46.033Z,54.75
2019-01-25T05:28:19.923Z,55.04
2019-01-25T05:31:03.793Z,55.53
2019-01-25T05:33:33.246Z,55.45
2019-01-25T05:36:02.610Z,55.29
2019-01-25T05:38:32.050Z,55.79
2019-01-25T05:41:01.441Z,56.37
2019-01-25T05:43:41.876Z,56.27
2019-01-25T05:46:11.304Z,56.17
2019-01-25T05:48:40.794Z,55.81
2019-01-25T05:51:13.132Z,56.23
2019-01-25T05:53:52.861Z,56.62
2019-01-25T05:56:22.947Z,56.96
2019-01-25T05:58:52.389Z,56.65
2019-01-25T06:01:21.769Z,56.63
2019-01-25T06:03:51.194Z,57.10
2019-01-25T06:06:20.562Z,56.67
2019-01-25T06:08:49.993Z,55.96
2019-01-25T06:11:19.393Z,55.72
2019-01-25T06:13:48.847Z,55.31
2019-01-25T06:16:18.246Z,54.83
2019-01-25T06:18:47.685Z,55.28
2019-01-25T06:21:17.062Z,55.40
2019-01-25T06:23:46.488Z,55.37
2019-01-25T06:26:15.880Z,55.08
2019-01-25T06:28:48.731Z,55.29
2019-01-25T06:31:20.349Z,55.38
2019-01-25T06:33:49.780Z,55.03
2019-01-25T06:36:19.169Z,55.43
2019-01-25T06:38:48.601Z,55.97
2019-01-25T06:41:18.007Z,55.63
2019-01-25T06:43:47.418Z,55.61
2019-01-25T06:46:16.823Z,55.83
2019-01-25T06:48:46.233Z,56.22
2019-01-25T06:51:15.623Z,56.88
2019-01-25T06:53:45.042Z,56.40
2019-01-25T06:56:14.458Z,56.84
2019-01-25T06:59:01.439Z,58.41
2019-01-25T07:02:04.755Z,60.39
2019-01-25T07:04:34.198Z,60.36
2019-01-25T07:07:05.303Z,60.22
2019-01-25T07:09:34.726Z,62.12
2019-01-25T07:12:04.112Z,62.44
2019-01-25T07:14:33.528Z,62.70
2019-01-25T07:17:02.904Z,63.84
2019-01-25T07:19:32.320Z,62.72
2019-01-25T07:22:01.717Z,63.98
2019-01-25T07:24:31.116Z,64.15
2019-01-25T07:27:00.519Z,62.67
2019-01-25T07:29:29.930Z,60.84
2019-01-25T07:31:59.330Z,60.10
2019-01-25T07:34:28.780Z,59.86
2019-01-25T07:36:58.323Z,61.20
2019-01-25T07:39:30.260Z,62.60
2019-01-25T07:42:02.230Z,62.50
2019-01-25T07:44:30.852Z,60.86
2019-01-25T07:47:00.236Z,59.88
2019-01-25T07:49:29.858Z,59.45
2019-01-25T07:51:59.453Z,57.87
2019-01-25T07:54:28.929Z,57.17
2019-01-25T07:56:58.360Z,57.21
2019-01-25T07:59:27.726Z,57.00
2019-01-25T08:01:57.228Z,57.17
2019-01-25T08:04:26.621Z,56.02
2019-01-25T08:06:56.048Z,57.47
2019-01-25T08:09:25.736Z,58.66
2019-01-25T08:11:55.757Z,59.26
2019-01-25T08:14:25.226Z,60.96
2019-01-25T08:16:54.704Z,60.60
2019-01-25T08:19:24.181Z,61.66
2019-01-25T08:21:53.738Z,62.10
2019-01-25T08:24:23.157Z,61.45
2019-01-25T08:26:52.589Z,61.61
2019-01-25T08:29:27.858Z,59.96
2019-01-25T08:31:53.333Z,59.43
2019-01-25T08:34:22.964Z,59.12
2019-01-25T08:36:52.510Z,58.19
2019-01-25T08:39:21.984Z,58.62
2019-01-25T08:41:51.481Z,58.67
2019-01-25T08:44:20.890Z,58.91
2019-01-25T08:46:50.300Z,60.79
2019-01-25T08:49:19.728Z,61.13
2019-01-25T08:51:49.232Z,61.08
2019-01-25T08:54:18.606Z,60.74
2019-01-25T08:56:48.265Z,60.88
2019-01-25T08:59:17.672Z,60.51
2019-01-25T09:01:47.049Z,59.77
2019-01-25T09:04:16.563Z,58.80
2019-01-25T09:06:45.930Z,58.99
2019-01-25T09:09:15.413Z,62.95
2019-01-25T09:11:44.749Z,65.76
2019-01-25T09:14:14.179Z,66.86
2019-01-25T09:16:43.664Z,66.29
2019-01-25T09:19:13.109Z,68.28
2019-01-25T09:21:42.529Z,67.10
2019-01-25T09:24:12.045Z,65.62
2019-01-25T09:26:41.453Z,68.43
2019-01-25T09:29:10.859Z,69.29
2019-01-25T09:31:40.217Z,68.19
2019-01-25T09:34:09.646Z,69.42
2019-01-25T09:36:39.067Z,69.69
2019-01-25T09:39:10.075Z,69.45
2019-01-25T09:41:39.663Z,69.38
2019-01-25T09:44:09.124Z,70.94
2019-01-25T09:46:38.536Z,70.14
2019-01-25T09:49:07.958Z,68.14
2019-01-25T09:51:37.357Z,66.62
2019-01-25T09:54:06.758Z,65.81
2019-01-25T09:56:36.186Z,65.07
2019-01-25T09:59:06.114Z,65.66
2019-01-25T10:01:35.481Z,67.50
2019-01-25T10:04:04.906Z,69.56
2019-01-25T10:06:34.300Z,71.42
2019-01-25T10:09:05.327Z,72.47
2019-01-25T10:11:34.747Z,73.66
2019-01-25T10:14:04.309Z,73.03
2019-01-25T10:16:33.700Z,71.19
2019-01-25T10:19:03.181Z,70.38
2019-01-25T10:21:32.613Z,71.41
2019-01-25T10:24:02.028Z,71.83
2019-01-25T10:26:31.524Z,70.66
2019-01-25T10:29:00.976Z,68.44
2019-01-25T10:31:30.363Z,68.01
2019-01-25T10:33:59.809Z,69.61
2019-01-25T10:36:29.193Z,69.24
2019-01-25T10:38:58.625Z,69.85
2019-01-25T10:41:28.005Z,68.92
2019-01-25T10:43:57.425Z,66.42
2019-01-25T10:46:26.846Z,63.84
2019-01-25T10:48:56.219Z,63.67
2019-01-25T10:51:25.682Z,62.77
2019-01-25T10:53:55.122Z,62.08
2019-01-25T10:56:24.567Z,62.05
2019-01-25T10:58:53.929Z,63.79
2019-01-25T11:01:23.375Z,64.59
2019-01-25T11:03:52.744Z,63.73
2019-01-25T11:06:22.651Z,62.96
2019-01-25T11:08:52.986Z,62.88
2019-01-25T11:11:22.493Z,61.61
2019-01-25T11:13:51.882Z,61.08
2019-01-25T11:16:21.321Z,63.13
2019-01-25T11:18:50.742Z,65.34
2019-01-25T11:21:20.198Z,66.78
2019-01-25T11:23:49.579Z,66.26
2019-01-25T11:26:19.026Z,67.36
2019-01-25T11:28:48.476Z,68.14
2019-01-25T11:31:17.910Z,67.77
2019-01-25T11:33:47.566Z,66.75
2019-01-25T11:36:17.297Z,65.04
2019-01-25T11:38:46.848Z,67.24
2019-01-25T11:41:16.617Z,67.95
2019-01-25T11:43:46.396Z,69.30
2019-01-25T11:46:16.158Z,66.99
2019-01-25T11:48:45.811Z,68.18
2019-01-25T11:51:15.558Z,66.21
2019-01-25T11:53:45.314Z,66.58
2019-01-25T11:56:15.389Z,64.22
2019-01-25T11:58:45.164Z,62.45
2019-01-25T12:01:14.910Z,59.69
2019-01-25T12:03:44.590Z,58.24
2019-01-25T12:06:14.438Z,56.22
2019-01-25T12:08:44.096Z,52.27
2019-01-25T12:11:13.950Z,51.53
2019-01-25T12:13:43.681Z,48.58
2019-01-25T12:16:13.447Z,48.52
2019-01-25T12:18:43.193Z,54.99
2019-01-25T12:21:12.852Z,58.20
2019-01-25T12:23:42.544Z,57.99
2019-01-25T12:26:12.139Z,55.98
2019-01-25T12:28:41.764Z,54.37
2019-01-25T12:31:11.352Z,52.06
2019-01-25T12:33:40.967Z,51.93
2019-01-25T12:36:10.578Z,55.35
2019-01-25T12:38:40.166Z,58.44
2019-01-25T12:41:09.752Z,61.40
2019-01-25T12:43:39.435Z,62.83
2019-01-25T12:46:09.069Z,63.54
2019-01-25T12:48:38.727Z,63.39
2019-01-25T12:51:16.599Z,64.30
2019-01-25T12:53:46.246Z,64.58
2019-01-25T12:56:15.899Z,64.67
2019-01-25T12:58:45.670Z,64.66
2019-01-25T13:01:15.419Z,62.96
2019-01-25T13:03:45.086Z,61.92
2019-01-25T13:06:14.755Z,60.89
2019-01-25T13:08:44.489Z,58.81
2019-01-25T13:11:14.158Z,57.22
2019-01-25T13:13:43.671Z,56.27
2019-01-25T13:16:13.178Z,55.46
2019-01-25T13:18:42.959Z,54.47
2019-01-25T13:21:12.679Z,54.61
2019-01-25T13:23:42.362Z,54.61
2019-01-25T13:26:12.124Z,54.17
2019-01-25T13:28:41.948Z,54.70
2019-01-25T13:31:11.738Z,52.96
2019-01-25T13:33:41.491Z,51.25
2019-01-25T13:36:12.295Z,50.55
2019-01-25T13:38:41.913Z,50.31
2019-01-25T13:41:11.496Z,50.77
2019-01-25T13:43:41.162Z,52.34
2019-01-25T13:46:11.733Z,53.65
2019-01-25T13:48:41.380Z,53.76
2019-01-25T13:51:10.953Z,53.46
2019-01-25T13:53:40.635Z,51.27
2019-01-25T13:56:10.417Z,50.96
2019-01-25T13:58:40.091Z,51.23
2019-01-25T14:01:09.663Z,50.72
2019-01-25T14:03:39.296Z,50.36
2019-01-25T14:06:08.777Z,51.21
2019-01-25T14:08:38.400Z,52.22
2019-01-25T14:11:08.905Z,53.30
2019-01-25T14:13:46.716Z,53.87
2019-01-25T14:16:12.712Z,52.55
2019-01-25T14:18:44.870Z,52.30
2019-01-25T14:21:13.887Z,52.23
2019-01-25T14:23:43.542Z,52.29
2019-01-25T14:26:13.254Z,52.59
2019-01-25T14:28:42.848Z,51.83
2019-01-25T14:31:12.518Z,51.88
2019-01-25T14:33:42.371Z,52.09
2019-01-25T14:36:12.011Z,52.42
2019-01-25T14:38:41.683Z,52.38
2019-01-25T14:41:11.246Z,53.17
2019-01-25T14:43:40.933Z,52.68
2019-01-25T14:46:10.578Z,52.40
2019-01-25T14:48:40.192Z,52.41
2019-01-25T14:51:09.879Z,52.78
2019-01-25T14:53:39.639Z,53.05
2019-01-25T14:56:09.364Z,53.03
2019-01-25T14:58:39.009Z,53.05
2019-01-25T15:01:08.728Z,52.42
2019-01-25T15:03:38.418Z,52.48
2019-01-25T15:06:08.114Z,52.19
2019-01-25T15:08:37.785Z,52.94
2019-01-25T15:11:07.310Z,53.00
2019-01-25T15:13:36.945Z,53.20
2019-01-25T15:16:06.624Z,53.16
2019-01-25T15:18:36.539Z,53.54
2019-01-25T15:21:06.361Z,53.37
2019-01-25T15:23:36.111Z,53.45
2019-01-25T15:26:05.767Z,54.22
2019-01-25T15:28:35.863Z,54.33
2019-01-25T15:31:05.596Z,54.27
2019-01-25T15:33:35.269Z,53.69
2019-01-25T15:36:04.921Z,53.28
2019-01-25T15:38:34.586Z,53.28
2019-01-25T15:41:04.230Z,53.13
2019-01-25T15:43:33.904Z,53.26
2019-01-25T15:46:03.680Z,53.31
2019-01-25T15:48:33.319Z,53.46
2019-01-25T15:51:02.992Z,54.01
2019-01-25T15:53:32.629Z,55.45
2019-01-25T15:56:02.370Z,56.51
2019-01-25T15:58:32.036Z,56.71
2019-01-25T16:01:01.520Z,57.12
2019-01-25T16:03:31.165Z,57.13
2019-01-25T16:06:00.731Z,56.33
2019-01-25T16:08:30.357Z,56.92
2019-01-25T16:10:59.853Z,57.21
2019-01-25T16:13:29.505Z,57.58
2019-01-25T16:15:59.228Z,57.42
2019-01-25T16:18:29.109Z,57.11
2019-01-25T16:20:58.642Z,57.31
2019-01-25T16:23:28.457Z,57.83
2019-01-25T16:25:58.106Z,58.01
2019-01-25T16:28:27.872Z,59.04
2019-01-25T16:30:57.524Z,59.14
2019-01-25T16:33:27.185Z,59.68
2019-01-25T16:35:56.914Z,59.14
2019-01-25T16:38:26.794Z,58.83
2019-01-25T16:40:56.490Z,58.55
2019-01-25T16:43:26.228Z,58.76
2019-01-25T16:45:56.038Z,59.27
2019-01-25T16:48:25.723Z,59.97
2019-01-25T16:50:55.580Z,60.53
2019-01-25T16:53:25.320Z,60.63
2019-01-25T16:55:54.778Z,61.28
2019-01-25T16:58:24.438Z,61.08
2019-01-25T17:00:54.091Z,60.79
2019-01-25T17:03:23.713Z,60.28
2019-01-25T17:05:53.418Z,59.43
2019-01-25T17:08:22.939Z,58.92
2019-01-25T17:10:52.585Z,59.22
2019-01-25T17:13:23.894Z,60.36
2019-01-25T17:15:55.242Z,61.10
2019-01-25T17:18:25.019Z,60.51
2019-01-25T17:20:54.794Z,60.56
2019-01-25T17:23:24.425Z,61.12
2019-01-25T17:25:54.093Z,60.89
2019-01-25T17:28:23.628Z,60.44
2019-01-25T17:30:53.168Z,60.90
2019-01-25T17:33:22.863Z,60.68
2019-01-25T17:35:52.704Z,60.80
2019-01-25T17:38:22.360Z,60.71
2019-01-25T17:40:52.129Z,60.76
2019-01-25T17:43:21.818Z,60.06
2019-01-25T17:45:51.500Z,59.95
2019-01-25T17:48:21.091Z,60.35
2019-01-25T17:50:50.947Z,59.37
2019-01-25T17:53:20.595Z,59.97
2019-01-25T17:55:50.170Z,59.35
2019-01-25T17:58:19.723Z,60.71
2019-01-25T18:00:54.846Z,60.20
2019-01-25T18:03:24.770Z,59.41
2019-01-25T18:05:54.609Z,59.98
2019-01-25T18:08:24.483Z,60.12
2019-01-25T18:10:54.371Z,60.96
2019-01-25T18:13:24.195Z,60.71
2019-01-25T18:15:54.063Z,60.83
2019-01-25T18:18:28.468Z,61.51
2019-01-25T18:20:58.133Z,61.07
2019-01-25T18:23:27.792Z,61.14
2019-01-25T18:26:01.240Z,61.30
2019-01-25T18:28:34.966Z,62.16
2019-01-25T18:31:25.440Z,61.83
2019-01-25T18:33:55.378Z,60.86
2019-01-25T18:36:25.072Z,61.37
2019-01-25T18:38:56.944Z,61.82
2019-01-25T18:41:26.625Z,62.46
2019-01-25T18:43:56.375Z,62.43
2019-01-25T18:46:26.031Z,62.30
2019-01-25T18:48:55.519Z,61.58
2019-01-25T18:51:25.135Z,62.70
2019-01-25T18:53:54.840Z,63.31
2019-01-25T18:56:26.251Z,63.93
2019-01-25T18:58:55.900Z,63.50
2019-01-25T19:01:25.579Z,63.92
2019-01-25T19:03:55.206Z,64.70
2019-01-25T19:06:24.856Z,65.04
2019-01-25T19:08:54.615Z,64.31
2019-01-25T19:11:24.187Z,63.66
2019-01-25T19:13:53.816Z,63.89
2019-01-25T19:16:23.547Z,64.54
2019-01-25T19:18:53.228Z,65.92
2019-01-25T19:21:22.963Z,66.32
2019-01-25T19:23:52.617Z,66.47
2019-01-25T19:26:22.281Z,66.98
2019-01-25T19:28:52.096Z,67.08
2019-01-25T19:31:21.695Z,66.58
2019-01-25T19:33:51.300Z,67.47
2019-01-25T19:36:20.945Z,69.26
2019-01-25T19:38:50.565Z,68.77
2019-01-25T19:41:21.003Z,70.04
2019-01-25T19:43:50.714Z,69.68
2019-01-25T19:46:20.363Z,70.42
2019-01-25T19:48:50.208Z,71.68
2019-01-25T19:51:19.795Z,72.32
2019-01-25T19:53:49.553Z,72.62
2019-01-25T19:56:19.225Z,74.08
2019-01-25T19:58:48.867Z,73.85
2019-01-25T20:01:18.541Z,75.91
2019-01-25T20:03:48.307Z,76.30
2019-01-25T20:06:18.025Z,76.44
2019-01-25T20:08:47.714Z,76.43
2019-01-25T20:11:17.404Z,77.59
2019-01-25T20:13:47.025Z,78.13
2019-01-25T20:16:16.566Z,77.46
2019-01-25T20:18:46.347Z,78.10
2019-01-25T20:21:15.912Z,77.75
2019-01-25T20:23:45.693Z,77.64
2019-01-25T20:26:15.366Z,77.73
2019-01-25T20:28:45.011Z,77.53
2019-01-25T20:31:14.771Z,77.73
2019-01-25T20:33:45.802Z,76.62
2019-01-25T20:36:15.718Z,76.87
2019-01-25T20:38:45.333Z,76.54
2019-01-25T20:41:14.911Z,76.69
2019-01-25T20:43:44.580Z,77.75
2019-01-25T20:46:13.977Z,77.35
2019-01-25T20:48:43.709Z,77.37
2019-01-25T20:51:13.348Z,76.27
2019-01-25T20:53:43.132Z,76.11
2019-01-25T20:56:12.751Z,76.00
2019-01-25T20:58:42.324Z,75.74
2019-01-25T21:01:11.964Z,75.50
2019-01-25T21:03:41.631Z,75.57
2019-01-25T21:06:11.298Z,75.88
2019-01-25T21:08:40.965Z,75.29
2019-01-25T21:11:10.652Z,75.10
2019-01-25T21:13:40.384Z,75.95
2019-01-25T21:16:10.055Z,76.26
2019-01-25T21:18:39.701Z,76.79
2019-01-25T21:21:09.440Z,75.77
2019-01-25T21:23:39.093Z,73.88
2019-01-25T21:26:08.719Z,74.45
2019-01-25T21:28:38.388Z,75.07
2019-01-25T21:31:08.077Z,74.12
2019-01-25T21:33:37.930Z,72.58
2019-01-25T21:36:07.670Z,73.71
2019-01-25T21:38:37.224Z,72.07
2019-01-25T21:41:07.429Z,70.75
2019-01-25T21:43:37.166Z,70.83
2019-01-25T21:46:06.842Z,71.01
2019-01-25T21:48:36.490Z,69.99
2019-01-25T21:51:06.306Z,69.50
2019-01-25T21:53:35.951Z,69.49
2019-01-25T21:56:05.556Z,69.20
2019-01-25T21:58:35.437Z,72.63
2019-01-25T22:01:05.113Z,73.93
2019-01-25T22:03:34.619Z,72.40
2019-01-25T22:06:04.455Z,71.69
2019-01-25T22:08:34.174Z,70.98
2019-01-25T22:11:05.719Z,71.40
2019-01-25T22:13:35.349Z,69.99
2019-01-25T22:16:05.105Z,69.59
2019-01-25T22:18:34.666Z,70.31
2019-01-25T22:21:04.288Z,70.00
2019-01-25T22:23:33.856Z,72.50
2019-01-25T22:26:03.419Z,74.95
2019-01-25T22:28:33.146Z,75.42
2019-01-25T22:31:02.765Z,77.57
2019-01-25T22:33:32.508Z,78.73
2019-01-25T22:36:02.207Z,78.89
2019-01-25T22:38:31.827Z,78.52
2019-01-25T22:41:01.503Z,78.53
2019-01-25T22:43:31.157Z,79.80
2019-01-25T22:46:00.749Z,79.58
2019-01-25T22:48:30.383Z,77.41
2019-01-25T22:51:00.056Z,76.00
2019-01-25T22:53:29.833Z,75.61
2019-01-25T22:55:59.216Z,73.64
2019-01-25T22:58:28.623Z,72.61
2019-01-25T23:01:17.229Z,72.52
2019-01-25T23:04:45.996Z,72.38
2019-01-25T23:07:17.414Z,71.49
2019-01-25T23:10:00.971Z,71.14
2019-01-25T23:12:30.648Z,76.52
2019-01-25T23:15:00.308Z,78.87
2019-01-25T23:17:29.725Z,80.16
2019-01-25T23:19:59.114Z,81.95
2019-01-25T23:22:28.546Z,81.64
2019-01-25T23:24:57.918Z,81.19
2019-01-25T23:27:27.270Z,79.85
2019-01-25T23:29:56.678Z,79.95
2019-01-25T23:32:26.355Z,79.22
2019-01-25T23:34:55.975Z,78.79
2019-01-25T23:37:25.384Z,79.43
2019-01-25T23:39:56.266Z,79.98
2019-01-25T23:42:25.679Z,78.83
2019-01-25T23:44:55.083Z,77.21
2019-01-25T23:47:24.478Z,77.20
2019-01-25T23:49:53.914Z,79.66
2019-01-25T23:52:23.269Z,80.67
2019-01-25T23:54:52.796Z,79.66
2019-01-25T23:57:22.283Z,80.64
2019-01-25T23:59:51.702Z,79.89
